sensor_id;sensor_type;location;lat;lon;timestamp;P1;durP1;ratioP1;P2;durP2;ratioP2
6937;SDS011;40040;42.706;23.372;2023-07-09T00:00:11;4.47;;;4.18;;
6937;SDS011;40040;42.706;23.372;2023-07-09T00:02:40;4.78;;;4.20;;
6937;SDS011;40040;42.706;23.372;2023-07-09T00:05:09;4.75;;;4.20;;
6937;SDS011;40040;42.706;23.372;2023-07-09T00:07:40;4.50;;;4.20;;
6937;SDS011;40040;42.706;23.372;2023-07-09T00:10:13;6.22;;;3.88;;
6937;SDS011;40040;42.706;23.372;2023-07-09T00:12:42;4.32;;;3.97;;
6937;SDS011;40040;42.706;23.372;2023-07-09T00:15:10;4.35;;;3.88;;
6937;SDS011;40040;42.706;23.372;2023-07-09T00:17:38;4.32;;;3.95;;
6937;SDS011;40040;42.706;23.372;2023-07-09T00:20:06;3.78;;;3.55;;
6937;SDS011;40040;42.706;23.372;2023-07-09T00:22:38;4.15;;;3.95;;
6937;SDS011;40040;42.706;23.372;2023-07-09T00:25:09;5.75;;;4.15;;
6937;SDS011;40040;42.706;23.372;2023-07-09T00:27:41;6.07;;;4.03;;
6937;SDS011;40040;42.706;23.372;2023-07-09T00:30:13;4.13;;;3.78;;
6937;SDS011;40040;42.706;23.372;2023-07-09T00:32:43;4.35;;;3.97;;
6937;SDS011;40040;42.706;23.372;2023-07-09T00:35:10;4.63;;;4.20;;
6937;SDS011;40040;42.706;23.372;2023-07-09T00:37:41;4.03;;;3.72;;
6937;SDS011;40040;42.706;23.372;2023-07-09T00:40:19;7.18;;;4.20;;
6937;SDS011;40040;42.706;23.372;2023-07-09T00:42:48;5.65;;;4.30;;
6937;SDS011;40040;42.706;23.372;2023-07-09T00:45:17;4.88;;;4.43;;
6937;SDS011;40040;42.706;23.372;2023-07-09T00:47:48;4.32;;;3.92;;
6937;SDS011;40040;42.706;23.372;2023-07-09T00:50:25;5.20;;;4.75;;
6937;SDS011;40040;42.706;23.372;2023-07-09T00:53:01;4.75;;;4.35;;
6937;SDS011;40040;42.706;23.372;2023-07-09T00:55:33;5.38;;;4.97;;
6937;SDS011;40040;42.706;23.372;2023-07-09T00:58:05;4.90;;;4.50;;
6937;SDS011;40040;42.706;23.372;2023-07-09T01:00:36;4.95;;;4.60;;
6937;SDS011;40040;42.706;23.372;2023-07-09T01:03:11;5.43;;;4.93;;
6937;SDS011;40040;42.706;23.372;2023-07-09T01:05:46;5.63;;;5.13;;
6937;SDS011;40040;42.706;23.372;2023-07-09T01:08:18;5.82;;;5.20;;
6937;SDS011;40040;42.706;23.372;2023-07-09T01:10:46;5.93;;;5.22;;
6937;SDS011;40040;42.706;23.372;2023-07-09T01:13:13;5.35;;;4.85;;
6937;SDS011;40040;42.706;23.372;2023-07-09T01:15:41;5.53;;;4.97;;
6937;SDS011;40040;42.706;23.372;2023-07-09T01:18:08;5.50;;;5.07;;
6937;SDS011;40040;42.706;23.372;2023-07-09T01:20:35;5.88;;;5.47;;
6937;SDS011;40040;42.706;23.372;2023-07-09T01:23:07;6.15;;;5.47;;
6937;SDS011;40040;42.706;23.372;2023-07-09T01:25:43;5.60;;;4.97;;
6937;SDS011;40040;42.706;23.372;2023-07-09T01:28:18;8.48;;;5.57;;
6937;SDS011;40040;42.706;23.372;2023-07-09T01:30:45;5.85;;;5.35;;
6937;SDS011;40040;42.706;23.372;2023-07-09T01:33:14;6.97;;;5.28;;
6937;SDS011;40040;42.706;23.372;2023-07-09T01:35:41;5.82;;;5.40;;
6937;SDS011;40040;42.706;23.372;2023-07-09T01:38:09;6.18;;;5.35;;
6937;SDS011;40040;42.706;23.372;2023-07-09T01:40:36;6.43;;;5.50;;
6937;SDS011;40040;42.706;23.372;2023-07-09T01:43:04;7.25;;;5.43;;
6937;SDS011;40040;42.706;23.372;2023-07-09T01:45:32;5.97;;;5.45;;
6937;SDS011;40040;42.706;23.372;2023-07-09T01:48:01;5.97;;;5.47;;
6937;SDS011;40040;42.706;23.372;2023-07-09T01:50:29;6.05;;;5.47;;
6937;SDS011;40040;42.706;23.372;2023-07-09T01:52:56;5.85;;;5.32;;
6937;SDS011;40040;42.706;23.372;2023-07-09T01:55:25;5.85;;;5.35;;
6937;SDS011;40040;42.706;23.372;2023-07-09T01:57:52;5.95;;;5.43;;
6937;SDS011;40040;42.706;23.372;2023-07-09T02:00:18;7.50;;;5.43;;
6937;SDS011;40040;42.706;23.372;2023-07-09T02:02:46;8.18;;;5.28;;
6937;SDS011;40040;42.706;23.372;2023-07-09T02:05:14;6.18;;;5.40;;
6937;SDS011;40040;42.706;23.372;2023-07-09T02:07:41;6.07;;;5.45;;
6937;SDS011;40040;42.706;23.372;2023-07-09T02:10:09;6.05;;;5.45;;
6937;SDS011;40040;42.706;23.372;2023-07-09T02:12:38;6.20;;;5.70;;
6937;SDS011;40040;42.706;23.372;2023-07-09T02:15:05;6.05;;;5.47;;
6937;SDS011;40040;42.706;23.372;2023-07-09T02:17:33;6.53;;;5.80;;
6937;SDS011;40040;42.706;23.372;2023-07-09T02:20:00;6.50;;;5.53;;
6937;SDS011;40040;42.706;23.372;2023-07-09T02:22:29;6.95;;;5.13;;
6937;SDS011;40040;42.706;23.372;2023-07-09T02:24:56;6.03;;;5.38;;
6937;SDS011;40040;42.706;23.372;2023-07-09T02:27:23;5.88;;;5.40;;
6937;SDS011;40040;42.706;23.372;2023-07-09T02:29:51;7.20;;;5.30;;
6937;SDS011;40040;42.706;23.372;2023-07-09T02:32:20;7.72;;;5.70;;
6937;SDS011;40040;42.706;23.372;2023-07-09T02:34:48;6.10;;;5.60;;
6937;SDS011;40040;42.706;23.372;2023-07-09T02:37:18;6.00;;;5.45;;
6937;SDS011;40040;42.706;23.372;2023-07-09T02:39:46;6.22;;;5.60;;
6937;SDS011;40040;42.706;23.372;2023-07-09T02:42:13;7.15;;;5.45;;
6937;SDS011;40040;42.706;23.372;2023-07-09T02:44:41;5.70;;;5.30;;
6937;SDS011;40040;42.706;23.372;2023-07-09T02:47:10;7.13;;;5.72;;
6937;SDS011;40040;42.706;23.372;2023-07-09T02:49:38;7.20;;;5.68;;
6937;SDS011;40040;42.706;23.372;2023-07-09T02:52:05;6.20;;;5.63;;
6937;SDS011;40040;42.706;23.372;2023-07-09T02:54:33;6.20;;;5.60;;
6937;SDS011;40040;42.706;23.372;2023-07-09T02:57:00;6.05;;;5.55;;
6937;SDS011;40040;42.706;23.372;2023-07-09T02:59:27;6.38;;;5.78;;
6937;SDS011;40040;42.706;23.372;2023-07-09T03:01:54;6.00;;;5.45;;
6937;SDS011;40040;42.706;23.372;2023-07-09T03:04:23;6.35;;;5.75;;
6937;SDS011;40040;42.706;23.372;2023-07-09T03:06:50;8.40;;;5.78;;
6937;SDS011;40040;42.706;23.372;2023-07-09T03:09:17;7.15;;;6.07;;
6937;SDS011;40040;42.706;23.372;2023-07-09T03:11:44;6.43;;;5.80;;
6937;SDS011;40040;42.706;23.372;2023-07-09T03:14:10;6.88;;;5.80;;
6937;SDS011;40040;42.706;23.372;2023-07-09T03:16:37;7.70;;;5.88;;
6937;SDS011;40040;42.706;23.372;2023-07-09T03:19:04;7.60;;;5.95;;
6937;SDS011;40040;42.706;23.372;2023-07-09T03:21:33;6.88;;;5.80;;
6937;SDS011;40040;42.706;23.372;2023-07-09T03:24:00;6.72;;;5.93;;
6937;SDS011;40040;42.706;23.372;2023-07-09T03:26:27;6.28;;;5.55;;
6937;SDS011;40040;42.706;23.372;2023-07-09T03:28:54;6.60;;;5.97;;
6937;SDS011;40040;42.706;23.372;2023-07-09T03:31:21;7.78;;;6.22;;
6937;SDS011;40040;42.706;23.372;2023-07-09T03:33:49;6.05;;;5.45;;
6937;SDS011;40040;42.706;23.372;2023-07-09T03:36:17;8.00;;;6.10;;
6937;SDS011;40040;42.706;23.372;2023-07-09T03:38:47;7.68;;;5.85;;
6937;SDS011;40040;42.706;23.372;2023-07-09T03:41:14;6.65;;;5.97;;
6937;SDS011;40040;42.706;23.372;2023-07-09T03:43:42;7.55;;;6.55;;
6937;SDS011;40040;42.706;23.372;2023-07-09T03:46:09;6.50;;;5.90;;
6937;SDS011;40040;42.706;23.372;2023-07-09T03:48:35;7.00;;;6.30;;
6937;SDS011;40040;42.706;23.372;2023-07-09T03:51:02;8.00;;;6.45;;
6937;SDS011;40040;42.706;23.372;2023-07-09T03:53:29;6.50;;;5.93;;
6937;SDS011;40040;42.706;23.372;2023-07-09T03:55:57;6.72;;;5.85;;
6937;SDS011;40040;42.706;23.372;2023-07-09T03:58:25;8.77;;;5.53;;
6937;SDS011;40040;42.706;23.372;2023-07-09T04:00:52;6.80;;;6.10;;
6937;SDS011;40040;42.706;23.372;2023-07-09T04:03:20;6.35;;;5.80;;
6937;SDS011;40040;42.706;23.372;2023-07-09T04:05:47;6.10;;;5.65;;
6937;SDS011;40040;42.706;23.372;2023-07-09T04:08:14;8.38;;;6.20;;
6937;SDS011;40040;42.706;23.372;2023-07-09T04:10:42;7.30;;;6.40;;
6937;SDS011;40040;42.706;23.372;2023-07-09T04:13:10;7.25;;;5.93;;
6937;SDS011;40040;42.706;23.372;2023-07-09T04:15:37;7.05;;;6.40;;
6937;SDS011;40040;42.706;23.372;2023-07-09T04:18:04;5.90;;;5.40;;
6937;SDS011;40040;42.706;23.372;2023-07-09T04:20:31;6.47;;;5.93;;
6937;SDS011;40040;42.706;23.372;2023-07-09T04:23:00;6.63;;;6.03;;
6937;SDS011;40040;42.706;23.372;2023-07-09T04:25:27;6.28;;;5.55;;
6937;SDS011;40040;42.706;23.372;2023-07-09T04:27:54;7.43;;;5.80;;
6937;SDS011;40040;42.706;23.372;2023-07-09T04:30:22;6.57;;;6.00;;
6937;SDS011;40040;42.706;23.372;2023-07-09T04:32:49;7.70;;;6.20;;
6937;SDS011;40040;42.706;23.372;2023-07-09T04:35:16;6.80;;;6.25;;
6937;SDS011;40040;42.706;23.372;2023-07-09T04:37:43;10.10;;;6.05;;
6937;SDS011;40040;42.706;23.372;2023-07-09T04:40:10;7.00;;;6.35;;
6937;SDS011;40040;42.706;23.372;2023-07-09T04:42:38;7.35;;;6.18;;
6937;SDS011;40040;42.706;23.372;2023-07-09T04:45:06;7.47;;;6.53;;
6937;SDS011;40040;42.706;23.372;2023-07-09T04:47:36;6.53;;;6.03;;
6937;SDS011;40040;42.706;23.372;2023-07-09T04:50:03;6.65;;;6.05;;
6937;SDS011;40040;42.706;23.372;2023-07-09T04:52:32;6.97;;;6.30;;
6937;SDS011;40040;42.706;23.372;2023-07-09T04:54:59;6.43;;;5.82;;
6937;SDS011;40040;42.706;23.372;2023-07-09T04:57:27;7.25;;;6.47;;
6937;SDS011;40040;42.706;23.372;2023-07-09T04:59:54;6.65;;;6.15;;
6937;SDS011;40040;42.706;23.372;2023-07-09T05:02:21;6.70;;;6.10;;
6937;SDS011;40040;42.706;23.372;2023-07-09T05:04:49;7.43;;;6.50;;
6937;SDS011;40040;42.706;23.372;2023-07-09T05:07:17;8.43;;;6.63;;
6937;SDS011;40040;42.706;23.372;2023-07-09T05:09:43;8.02;;;7.22;;
6937;SDS011;40040;42.706;23.372;2023-07-09T05:12:10;7.60;;;6.95;;
6937;SDS011;40040;42.706;23.372;2023-07-09T05:14:37;8.07;;;6.85;;
6937;SDS011;40040;42.706;23.372;2023-07-09T05:17:04;8.00;;;7.07;;
6937;SDS011;40040;42.706;23.372;2023-07-09T05:19:31;7.97;;;7.22;;
6937;SDS011;40040;42.706;23.372;2023-07-09T05:22:00;9.93;;;7.28;;
6937;SDS011;40040;42.706;23.372;2023-07-09T05:24:27;8.60;;;7.35;;
6937;SDS011;40040;42.706;23.372;2023-07-09T05:26:54;9.70;;;7.57;;
6937;SDS011;40040;42.706;23.372;2023-07-09T05:29:21;7.57;;;6.88;;
6937;SDS011;40040;42.706;23.372;2023-07-09T05:31:48;8.05;;;7.25;;
6937;SDS011;40040;42.706;23.372;2023-07-09T05:34:14;14.55;;;8.45;;
6937;SDS011;40040;42.706;23.372;2023-07-09T05:36:41;8.48;;;7.68;;
6937;SDS011;40040;42.706;23.372;2023-07-09T05:39:09;8.35;;;7.40;;
6937;SDS011;40040;42.706;23.372;2023-07-09T05:41:36;9.18;;;7.68;;
6937;SDS011;40040;42.706;23.372;2023-07-09T05:44:03;8.43;;;7.63;;
6937;SDS011;40040;42.706;23.372;2023-07-09T05:46:33;8.57;;;7.75;;
6937;SDS011;40040;42.706;23.372;2023-07-09T05:49:02;10.90;;;8.50;;
6937;SDS011;40040;42.706;23.372;2023-07-09T05:51:29;8.15;;;7.45;;
6937;SDS011;40040;42.706;23.372;2023-07-09T05:53:56;7.05;;;6.40;;
6937;SDS011;40040;42.706;23.372;2023-07-09T05:56:24;7.00;;;6.40;;
6937;SDS011;40040;42.706;23.372;2023-07-09T05:58:51;6.88;;;5.80;;
6937;SDS011;40040;42.706;23.372;2023-07-09T06:01:18;8.43;;;5.55;;
6937;SDS011;40040;42.706;23.372;2023-07-09T06:03:46;5.70;;;5.18;;
6937;SDS011;40040;42.706;23.372;2023-07-09T06:06:14;6.15;;;5.63;;
6937;SDS011;40040;42.706;23.372;2023-07-09T06:08:41;6.30;;;5.32;;
6937;SDS011;40040;42.706;23.372;2023-07-09T06:11:08;6.60;;;6.00;;
6937;SDS011;40040;42.706;23.372;2023-07-09T06:13:36;6.10;;;5.38;;
6937;SDS011;40040;42.706;23.372;2023-07-09T06:16:03;5.35;;;4.85;;
6937;SDS011;40040;42.706;23.372;2023-07-09T06:18:31;6.57;;;5.97;;
6937;SDS011;40040;42.706;23.372;2023-07-09T06:20:59;6.03;;;5.43;;
6937;SDS011;40040;42.706;23.372;2023-07-09T06:23:27;7.05;;;5.18;;
6937;SDS011;40040;42.706;23.372;2023-07-09T06:25:55;5.88;;;5.30;;
6937;SDS011;40040;42.706;23.372;2023-07-09T06:28:23;6.40;;;5.30;;
6937;SDS011;40040;42.706;23.372;2023-07-09T06:30:52;5.72;;;4.97;;
6937;SDS011;40040;42.706;23.372;2023-07-09T06:33:19;6.07;;;5.28;;
6937;SDS011;40040;42.706;23.372;2023-07-09T06:35:46;5.93;;;5.10;;
6937;SDS011;40040;42.706;23.372;2023-07-09T06:38:14;5.47;;;5.07;;
6937;SDS011;40040;42.706;23.372;2023-07-09T06:40:41;5.35;;;4.85;;
6937;SDS011;40040;42.706;23.372;2023-07-09T06:43:08;6.32;;;5.05;;
6937;SDS011;40040;42.706;23.372;2023-07-09T06:45:35;5.28;;;4.78;;
6937;SDS011;40040;42.706;23.372;2023-07-09T06:48:03;5.60;;;5.18;;
6937;SDS011;40040;42.706;23.372;2023-07-09T06:50:32;9.13;;;5.28;;
6937;SDS011;40040;42.706;23.372;2023-07-09T06:52:59;5.43;;;5.03;;
6937;SDS011;40040;42.706;23.372;2023-07-09T06:55:26;5.53;;;5.03;;
6937;SDS011;40040;42.706;23.372;2023-07-09T06:57:53;5.88;;;5.20;;
6937;SDS011;40040;42.706;23.372;2023-07-09T07:00:20;5.68;;;5.18;;
6937;SDS011;40040;42.706;23.372;2023-07-09T07:02:47;5.40;;;4.93;;
6937;SDS011;40040;42.706;23.372;2023-07-09T07:05:15;5.75;;;5.35;;
6937;SDS011;40040;42.706;23.372;2023-07-09T07:07:43;8.38;;;4.93;;
6937;SDS011;40040;42.706;23.372;2023-07-09T07:10:10;4.65;;;4.30;;
6937;SDS011;40040;42.706;23.372;2023-07-09T07:12:41;5.10;;;4.80;;
6937;SDS011;40040;42.706;23.372;2023-07-09T07:15:09;5.15;;;4.78;;
6937;SDS011;40040;42.706;23.372;2023-07-09T07:17:37;5.15;;;4.80;;
6937;SDS011;40040;42.706;23.372;2023-07-09T07:20:04;5.50;;;4.57;;
6937;SDS011;40040;42.706;23.372;2023-07-09T07:22:33;5.40;;;4.90;;
6937;SDS011;40040;42.706;23.372;2023-07-09T07:25:00;7.20;;;5.40;;
6937;SDS011;40040;42.706;23.372;2023-07-09T07:27:27;5.10;;;4.68;;
6937;SDS011;40040;42.706;23.372;2023-07-09T07:29:53;5.38;;;4.95;;
6937;SDS011;40040;42.706;23.372;2023-07-09T07:32:20;5.32;;;4.90;;
6937;SDS011;40040;42.706;23.372;2023-07-09T07:34:47;5.00;;;4.45;;
6937;SDS011;40040;42.706;23.372;2023-07-09T07:37:14;5.65;;;5.05;;
6937;SDS011;40040;42.706;23.372;2023-07-09T07:39:43;8.25;;;5.40;;
6937;SDS011;40040;42.706;23.372;2023-07-09T07:42:09;5.93;;;5.18;;
6937;SDS011;40040;42.706;23.372;2023-07-09T07:44:36;5.10;;;4.70;;
6937;SDS011;40040;42.706;23.372;2023-07-09T07:47:03;7.00;;;4.82;;
6937;SDS011;40040;42.706;23.372;2023-07-09T07:49:31;6.00;;;5.50;;
6937;SDS011;40040;42.706;23.372;2023-07-09T07:51:58;5.35;;;4.95;;
6937;SDS011;40040;42.706;23.372;2023-07-09T07:54:28;4.85;;;4.47;;
6937;SDS011;40040;42.706;23.372;2023-07-09T07:56:57;5.07;;;4.70;;
6937;SDS011;40040;42.706;23.372;2023-07-09T07:59:24;5.10;;;4.60;;
6937;SDS011;40040;42.706;23.372;2023-07-09T08:01:51;4.85;;;4.45;;
6937;SDS011;40040;42.706;23.372;2023-07-09T08:04:18;5.13;;;4.63;;
6937;SDS011;40040;42.706;23.372;2023-07-09T08:06:44;4.88;;;4.47;;
6937;SDS011;40040;42.706;23.372;2023-07-09T08:09:11;4.82;;;4.53;;
6937;SDS011;40040;42.706;23.372;2023-07-09T08:11:38;4.72;;;4.25;;
6937;SDS011;40040;42.706;23.372;2023-07-09T08:14:06;5.22;;;4.78;;
6937;SDS011;40040;42.706;23.372;2023-07-09T08:16:33;5.05;;;4.55;;
6937;SDS011;40040;42.706;23.372;2023-07-09T08:19:00;5.20;;;4.80;;
6937;SDS011;40040;42.706;23.372;2023-07-09T08:21:27;4.80;;;4.50;;
6937;SDS011;40040;42.706;23.372;2023-07-09T08:23:54;6.60;;;4.50;;
6937;SDS011;40040;42.706;23.372;2023-07-09T08:26:21;4.55;;;4.35;;
6937;SDS011;40040;42.706;23.372;2023-07-09T08:28:49;4.72;;;4.25;;
6937;SDS011;40040;42.706;23.372;2023-07-09T08:31:17;5.07;;;4.68;;
6937;SDS011;40040;42.706;23.372;2023-07-09T08:33:44;4.50;;;4.20;;
6937;SDS011;40040;42.706;23.372;2023-07-09T08:36:11;4.95;;;4.47;;
6937;SDS011;40040;42.706;23.372;2023-07-09T08:38:38;4.60;;;4.20;;
6937;SDS011;40040;42.706;23.372;2023-07-09T08:41:08;5.05;;;4.60;;
6937;SDS011;40040;42.706;23.372;2023-07-09T08:43:45;4.65;;;4.45;;
6937;SDS011;40040;42.706;23.372;2023-07-09T08:46:20;4.97;;;4.60;;
6937;SDS011;40040;42.706;23.372;2023-07-09T08:48:53;4.72;;;4.32;;
6937;SDS011;40040;42.706;23.372;2023-07-09T08:51:25;4.57;;;4.20;;
6937;SDS011;40040;42.706;23.372;2023-07-09T08:54:00;4.78;;;4.47;;
6937;SDS011;40040;42.706;23.372;2023-07-09T08:56:27;5.22;;;4.93;;
6937;SDS011;40040;42.706;23.372;2023-07-09T08:58:58;5.20;;;4.55;;
6937;SDS011;40040;42.706;23.372;2023-07-09T09:01:29;5.97;;;5.03;;
6937;SDS011;40040;42.706;23.372;2023-07-09T09:04:02;5.00;;;4.60;;
6937;SDS011;40040;42.706;23.372;2023-07-09T09:06:31;5.20;;;4.70;;
6937;SDS011;40040;42.706;23.372;2023-07-09T09:09:02;4.95;;;4.65;;
6937;SDS011;40040;42.706;23.372;2023-07-09T09:11:41;5.15;;;4.75;;
6937;SDS011;40040;42.706;23.372;2023-07-09T09:14:17;5.75;;;4.78;;
6937;SDS011;40040;42.706;23.372;2023-07-09T09:16:52;5.45;;;5.10;;
6937;SDS011;40040;42.706;23.372;2023-07-09T09:19:21;4.78;;;4.38;;
6937;SDS011;40040;42.706;23.372;2023-07-09T09:21:54;7.50;;;6.80;;
6937;SDS011;40040;42.706;23.372;2023-07-09T09:24:27;10.15;;;9.15;;
6937;SDS011;40040;42.706;23.372;2023-07-09T09:26:58;4.30;;;4.07;;
6937;SDS011;40040;42.706;23.372;2023-07-09T09:29:26;5.10;;;4.70;;
6937;SDS011;40040;42.706;23.372;2023-07-09T09:31:54;5.10;;;4.78;;
6937;SDS011;40040;42.706;23.372;2023-07-09T09:34:25;5.20;;;4.75;;
6937;SDS011;40040;42.706;23.372;2023-07-09T09:36:53;5.30;;;4.65;;
6937;SDS011;40040;42.706;23.372;2023-07-09T09:39:21;8.90;;;7.00;;
6937;SDS011;40040;42.706;23.372;2023-07-09T09:41:51;5.55;;;4.53;;
6937;SDS011;40040;42.706;23.372;2023-07-09T09:44:20;5.03;;;4.60;;
6937;SDS011;40040;42.706;23.372;2023-07-09T09:46:51;6.65;;;5.25;;
6937;SDS011;40040;42.706;23.372;2023-07-09T09:49:20;11.27;;;10.13;;
6937;SDS011;40040;42.706;23.372;2023-07-09T09:51:47;8.23;;;5.25;;
6937;SDS011;40040;42.706;23.372;2023-07-09T09:54:16;5.05;;;4.65;;
6937;SDS011;40040;42.706;23.372;2023-07-09T09:56:47;4.45;;;4.18;;
6937;SDS011;40040;42.706;23.372;2023-07-09T09:59:20;8.38;;;7.50;;
6937;SDS011;40040;42.706;23.372;2023-07-09T10:01:56;10.35;;;9.02;;
6937;SDS011;40040;42.706;23.372;2023-07-09T10:04:26;4.95;;;4.55;;
6937;SDS011;40040;42.706;23.372;2023-07-09T10:06:55;4.63;;;4.32;;
6937;SDS011;40040;42.706;23.372;2023-07-09T10:09:27;7.25;;;5.68;;
6937;SDS011;40040;42.706;23.372;2023-07-09T10:12:08;7.38;;;5.90;;
6937;SDS011;40040;42.706;23.372;2023-07-09T10:14:41;4.65;;;4.35;;
6937;SDS011;40040;42.706;23.372;2023-07-09T10:17:15;4.57;;;4.20;;
6937;SDS011;40040;42.706;23.372;2023-07-09T10:19:52;6.72;;;6.13;;
6937;SDS011;40040;42.706;23.372;2023-07-09T10:22:37;5.25;;;4.75;;
6937;SDS011;40040;42.706;23.372;2023-07-09T10:25:13;4.43;;;4.18;;
6937;SDS011;40040;42.706;23.372;2023-07-09T10:27:55;4.90;;;4.50;;
6937;SDS011;40040;42.706;23.372;2023-07-09T10:30:38;4.57;;;4.28;;
6937;SDS011;40040;42.706;23.372;2023-07-09T10:33:16;4.72;;;4.32;;
6937;SDS011;40040;42.706;23.372;2023-07-09T10:35:54;4.30;;;4.10;;
6937;SDS011;40040;42.706;23.372;2023-07-09T10:38:34;4.20;;;3.90;;
6937;SDS011;40040;42.706;23.372;2023-07-09T10:41:12;5.30;;;4.50;;
6937;SDS011;40040;42.706;23.372;2023-07-09T10:43:41;4.40;;;4.13;;
6937;SDS011;40040;42.706;23.372;2023-07-09T10:46:13;4.18;;;3.97;;
6937;SDS011;40040;42.706;23.372;2023-07-09T10:48:43;4.40;;;4.10;;
6937;SDS011;40040;42.706;23.372;2023-07-09T10:51:17;4.05;;;3.85;;
6937;SDS011;40040;42.706;23.372;2023-07-09T10:53:50;4.07;;;3.78;;
6937;SDS011;40040;42.706;23.372;2023-07-09T10:56:23;3.97;;;3.80;;
6937;SDS011;40040;42.706;23.372;2023-07-09T10:58:54;7.18;;;6.60;;
6937;SDS011;40040;42.706;23.372;2023-07-09T11:01:27;4.28;;;3.97;;
6937;SDS011;40040;42.706;23.372;2023-07-09T11:03:58;4.25;;;3.83;;
6937;SDS011;40040;42.706;23.372;2023-07-09T11:06:31;5.65;;;3.88;;
6937;SDS011;40040;42.706;23.372;2023-07-09T11:09:04;4.10;;;3.90;;
6937;SDS011;40040;42.706;23.372;2023-07-09T11:11:39;4.10;;;3.80;;
6937;SDS011;40040;42.706;23.372;2023-07-09T11:14:21;4.25;;;3.95;;
6937;SDS011;40040;42.706;23.372;2023-07-09T11:16:53;3.97;;;3.78;;
6937;SDS011;40040;42.706;23.372;2023-07-09T11:19:23;3.50;;;3.40;;
6937;SDS011;40040;42.706;23.372;2023-07-09T11:21:59;3.65;;;3.45;;
6937;SDS011;40040;42.706;23.372;2023-07-09T11:24:30;4.10;;;3.90;;
6937;SDS011;40040;42.706;23.372;2023-07-09T11:27:00;3.88;;;3.67;;
6937;SDS011;40040;42.706;23.372;2023-07-09T11:29:27;4.45;;;4.05;;
6937;SDS011;40040;42.706;23.372;2023-07-09T11:31:54;3.70;;;3.42;;
6937;SDS011;40040;42.706;23.372;2023-07-09T11:34:33;4.28;;;4.07;;
6937;SDS011;40040;42.706;23.372;2023-07-09T11:37:01;3.60;;;3.50;;
6937;SDS011;40040;42.706;23.372;2023-07-09T11:39:28;3.80;;;3.50;;
6937;SDS011;40040;42.706;23.372;2023-07-09T11:41:58;4.30;;;4.10;;
6937;SDS011;40040;42.706;23.372;2023-07-09T11:44:25;3.83;;;3.63;;
6937;SDS011;40040;42.706;23.372;2023-07-09T11:46:59;4.30;;;3.97;;
6937;SDS011;40040;42.706;23.372;2023-07-09T11:49:47;4.53;;;4.32;;
6937;SDS011;40040;42.706;23.372;2023-07-09T11:52:20;3.90;;;3.75;;
6937;SDS011;40040;42.706;23.372;2023-07-09T11:55:00;4.35;;;4.00;;
6937;SDS011;40040;42.706;23.372;2023-07-09T11:57:28;5.35;;;4.00;;
6937;SDS011;40040;42.706;23.372;2023-07-09T11:59:58;3.95;;;3.75;;
6937;SDS011;40040;42.706;23.372;2023-07-09T12:02:26;4.32;;;4.03;;
6937;SDS011;40040;42.706;23.372;2023-07-09T12:04:58;4.40;;;4.05;;
6937;SDS011;40040;42.706;23.372;2023-07-09T12:07:28;4.60;;;4.15;;
6937;SDS011;40040;42.706;23.372;2023-07-09T12:09:56;4.30;;;4.05;;
6937;SDS011;40040;42.706;23.372;2023-07-09T12:12:23;5.63;;;3.97;;
6937;SDS011;40040;42.706;23.372;2023-07-09T12:14:51;4.28;;;4.07;;
6937;SDS011;40040;42.706;23.372;2023-07-09T12:17:18;4.47;;;4.18;;
6937;SDS011;40040;42.706;23.372;2023-07-09T12:19:51;4.30;;;3.88;;
6937;SDS011;40040;42.706;23.372;2023-07-09T12:22:19;4.05;;;3.75;;
6937;SDS011;40040;42.706;23.372;2023-07-09T12:24:49;4.70;;;4.40;;
6937;SDS011;40040;42.706;23.372;2023-07-09T12:27:18;4.50;;;4.18;;
6937;SDS011;40040;42.706;23.372;2023-07-09T12:29:46;4.63;;;4.35;;
6937;SDS011;40040;42.706;23.372;2023-07-09T12:32:14;4.47;;;4.18;;
6937;SDS011;40040;42.706;23.372;2023-07-09T12:34:42;4.35;;;4.15;;
6937;SDS011;40040;42.706;23.372;2023-07-09T12:37:14;4.30;;;3.90;;
6937;SDS011;40040;42.706;23.372;2023-07-09T12:39:41;4.22;;;3.95;;
6937;SDS011;40040;42.706;23.372;2023-07-09T12:42:14;4.38;;;4.10;;
6937;SDS011;40040;42.706;23.372;2023-07-09T12:44:42;4.22;;;4.03;;
6937;SDS011;40040;42.706;23.372;2023-07-09T12:47:12;4.47;;;4.18;;
6937;SDS011;40040;42.706;23.372;2023-07-09T12:49:40;4.38;;;4.13;;
6937;SDS011;40040;42.706;23.372;2023-07-09T12:52:11;4.85;;;4.45;;
6937;SDS011;40040;42.706;23.372;2023-07-09T12:54:40;5.03;;;4.22;;
6937;SDS011;40040;42.706;23.372;2023-07-09T12:57:13;4.70;;;4.30;;
6937;SDS011;40040;42.706;23.372;2023-07-09T12:59:42;4.53;;;4.13;;
6937;SDS011;40040;42.706;23.372;2023-07-09T13:02:14;4.20;;;3.90;;
6937;SDS011;40040;42.706;23.372;2023-07-09T13:04:42;4.40;;;4.20;;
6937;SDS011;40040;42.706;23.372;2023-07-09T13:07:24;4.65;;;4.05;;
6937;SDS011;40040;42.706;23.372;2023-07-09T13:09:53;4.53;;;4.22;;
6937;SDS011;40040;42.706;23.372;2023-07-09T13:12:27;5.28;;;4.35;;
6937;SDS011;40040;42.706;23.372;2023-07-09T13:14:56;4.22;;;4.00;;
6937;SDS011;40040;42.706;23.372;2023-07-09T13:17:27;4.50;;;4.20;;
6937;SDS011;40040;42.706;23.372;2023-07-09T13:19:55;4.20;;;4.00;;
6937;SDS011;40040;42.706;23.372;2023-07-09T13:22:22;7.55;;;4.20;;
6937;SDS011;40040;42.706;23.372;2023-07-09T13:24:50;4.53;;;4.22;;
6937;SDS011;40040;42.706;23.372;2023-07-09T13:27:16;4.45;;;4.15;;
6937;SDS011;40040;42.706;23.372;2023-07-09T13:29:45;4.50;;;4.20;;
6937;SDS011;40040;42.706;23.372;2023-07-09T13:32:13;5.30;;;4.60;;
6937;SDS011;40040;42.706;23.372;2023-07-09T13:34:41;4.88;;;4.38;;
6937;SDS011;40040;42.706;23.372;2023-07-09T13:37:11;4.55;;;4.25;;
6937;SDS011;40040;42.706;23.372;2023-07-09T13:39:39;4.55;;;4.35;;
6937;SDS011;40040;42.706;23.372;2023-07-09T13:42:11;5.15;;;4.63;;
6937;SDS011;40040;42.706;23.372;2023-07-09T13:44:40;4.68;;;4.38;;
6937;SDS011;40040;42.706;23.372;2023-07-09T13:47:11;4.50;;;4.30;;
6937;SDS011;40040;42.706;23.372;2023-07-09T13:49:42;4.75;;;4.47;;
6937;SDS011;40040;42.706;23.372;2023-07-09T13:52:13;4.80;;;4.40;;
6937;SDS011;40040;42.706;23.372;2023-07-09T13:54:42;4.82;;;4.53;;
6937;SDS011;40040;42.706;23.372;2023-07-09T13:57:14;5.25;;;4.85;;
6937;SDS011;40040;42.706;23.372;2023-07-09T13:59:41;4.93;;;4.50;;
6937;SDS011;40040;42.706;23.372;2023-07-09T14:02:16;4.95;;;4.65;;
6937;SDS011;40040;42.706;23.372;2023-07-09T14:04:48;4.97;;;4.57;;
6937;SDS011;40040;42.706;23.372;2023-07-09T14:07:19;5.20;;;4.80;;
6937;SDS011;40040;42.706;23.372;2023-07-09T14:09:51;4.95;;;4.65;;
6937;SDS011;40040;42.706;23.372;2023-07-09T14:12:18;5.40;;;5.00;;
6937;SDS011;40040;42.706;23.372;2023-07-09T14:14:50;4.65;;;4.30;;
6937;SDS011;40040;42.706;23.372;2023-07-09T14:17:19;5.07;;;4.65;;
6937;SDS011;40040;42.706;23.372;2023-07-09T14:19:48;4.65;;;4.35;;
6937;SDS011;40040;42.706;23.372;2023-07-09T14:22:21;4.85;;;4.50;;
6937;SDS011;40040;42.706;23.372;2023-07-09T14:24:51;5.43;;;5.03;;
6937;SDS011;40040;42.706;23.372;2023-07-09T14:27:18;5.30;;;4.80;;
6937;SDS011;40040;42.706;23.372;2023-07-09T14:29:45;5.60;;;4.63;;
6937;SDS011;40040;42.706;23.372;2023-07-09T14:32:23;5.05;;;4.57;;
6937;SDS011;40040;42.706;23.372;2023-07-09T14:34:59;5.13;;;4.53;;
6937;SDS011;40040;42.706;23.372;2023-07-09T14:37:26;4.70;;;4.40;;
6937;SDS011;40040;42.706;23.372;2023-07-09T14:39:53;4.72;;;4.43;;
6937;SDS011;40040;42.706;23.372;2023-07-09T14:42:20;5.32;;;4.93;;
6937;SDS011;40040;42.706;23.372;2023-07-09T14:44:48;4.65;;;4.28;;
6937;SDS011;40040;42.706;23.372;2023-07-09T14:47:17;5.63;;;4.78;;
6937;SDS011;40040;42.706;23.372;2023-07-09T14:49:46;5.10;;;4.55;;
6937;SDS011;40040;42.706;23.372;2023-07-09T14:52:16;5.20;;;4.80;;
6937;SDS011;40040;42.706;23.372;2023-07-09T14:54:46;4.60;;;4.30;;
6937;SDS011;40040;42.706;23.372;2023-07-09T14:57:18;4.95;;;4.65;;
6937;SDS011;40040;42.706;23.372;2023-07-09T14:59:47;5.05;;;4.65;;